Time;durP1;ratioP1;P1;durP2;ratioP2;P2;SDS_P1;SDS_P2;PMS_P1;PMS_P2;Temp;Humidity;BMP_temperature;BMP_pressure;BME280_temperature;BME280_humidity;BME280_pressure;Samples;Min_cycle;Max_cycle;Signal;HPM_P1;HPM_P2
2023/08/22 00:00:48;;;;;;;;;;;;;;;25.27;57.08;93883.41;5089482;28;20293;-91
2023/08/22 00:03:14;;;;;;;;;;;;;;;25.27;57.09;93886.19;5073251;28;19924;-91
2023/08/22 00:05:39;;;;;;;;;;;;;;;25.27;56.76;93886.94;5074661;28;20022;-91
2023/08/22 00:08:05;;;;;;;;;;;;;;;25.26;56.95;93882.69;5073788;28;20305;-90
2023/08/22 00:10:31;;;;;;;;;;;;;;;25.26;57.00;93876.41;5074876;28;19960;-91
2023/08/22 00:12:56;;;;;;;;;;;;;;;25.26;56.94;93879.91;5074723;28;20327;-91
2023/08/22 00:15:22;;;;;;;;;;;;;;;25.25;56.89;93878.44;5074642;28;19931;-91
2023/08/22 00:17:48;;;;;;;;;;;;;;;25.26;57.12;93873.63;5074096;28;19928;-90
2023/08/22 00:20:13;;;;;;;;;;;;;;;25.25;57.00;93875.66;5072243;28;19931;-91
2023/08/22 00:22:40;;;;;;;;;;;;;;;25.25;56.96;93874.91;5067386;28;19920;-90
2023/08/22 00:25:05;;;;;;;;;;;;;;;25.24;57.11;93873.44;5054565;28;19920;-91
2023/08/22 00:27:30;;;;;;;;;;;;;;;25.25;56.90;93872.16;5093016;28;20435;-91
2023/08/22 00:29:56;;;;;;;;;;;;;;;25.24;56.84;93873.44;5098676;28;20025;-91
2023/08/22 00:32:22;;;;;;;;;;;;;;;25.24;56.97;93874.19;5073170;27;19970;-91
2023/08/22 00:34:47;;;;;;;;;;;;;;;25.23;56.93;93874.72;5074162;28;20453;-91
2023/08/22 00:37:12;;;;;;;;;;;;;;;25.23;56.95;93881.00;5104022;28;19924;-91
2023/08/22 00:39:37;;;;;;;;;;;;;;;25.23;56.85;93874.72;5089550;28;19977;-91
2023/08/22 00:42:03;;;;;;;;;;;;;;;25.22;56.92;93871.22;5102605;28;19924;-91
2023/08/22 00:44:28;;;;;;;;;;;;;;;25.21;57.04;93864.19;5096575;28;19962;-90
2023/08/22 00:46:53;;;;;;;;;;;;;;;25.22;57.04;93873.25;5071349;28;19920;-91
2023/08/22 00:49:18;;;;;;;;;;;;;;;25.23;57.02;93877.50;5070378;28;20063;-90
2023/08/22 00:51:44;;;;;;;;;;;;;;;25.21;56.73;93869.72;5089584;28;19920;-91
2023/08/22 00:54:10;;;;;;;;;;;;;;;25.20;57.07;93871.00;5074175;28;19967;-90
2023/08/22 00:56:35;;;;;;;;;;;;;;;25.21;56.81;93875.25;5091284;28;19927;-91
2023/08/22 00:59:01;;;;;;;;;;;;;;;25.21;57.00;93869.72;5073696;28;19928;-90
2023/08/22 01:01:26;;;;;;;;;;;;;;;25.21;56.88;93866.22;5072806;28;19923;-91
2023/08/22 01:03:52;;;;;;;;;;;;;;;25.20;56.79;93870.28;5073212;28;19938;-91
2023/08/22 01:06:24;;;;;;;;;;;;;;;25.20;56.87;93870.28;5069762;28;19962;-91
2023/08/22 01:08:51;;;;;;;;;;;;;;;25.20;56.77;93867.50;5086157;28;19928;-91
2023/08/22 01:11:19;;;;;;;;;;;;;;;25.19;56.93;93861.22;5073052;28;20305;-91
2023/08/22 01:13:44;;;;;;;;;;;;;;;25.20;56.80;93870.28;5072707;28;19930;-90
2023/08/22 01:16:10;;;;;;;;;;;;;;;25.20;56.77;93873.03;5073188;28;19924;-91
2023/08/22 01:18:35;;;;;;;;;;;;;;;25.20;56.62;93867.50;5072231;28;20389;-91
2023/08/22 01:21:06;;;;;;;;;;;;;;;25.19;56.64;93869.53;5073286;28;19935;-91
2023/08/22 01:23:33;;;;;;;;;;;;;;;25.19;56.99;93863.25;5061063;28;19995;-90
2023/08/22 01:25:59;;;;;;;;;;;;;;;25.19;56.73;93871.56;5085530;28;19924;-91
2023/08/22 01:28:37;;;;;;;;;;;;;;;25.19;56.79;93872.28;5085965;28;20263;-91
2023/08/22 01:31:08;;;;;;;;;;;;;;;25.18;56.85;93859.00;5068279;28;19928;-91
2023/08/22 01:33:36;;;;;;;;;;;;;;;25.18;56.94;93861.78;5086692;28;19920;-90
2023/08/22 01:36:02;;;;;;;;;;;;;;;25.19;56.76;93863.25;5053061;28;19935;-91
2023/08/22 01:38:27;;;;;;;;;;;;;;;25.17;56.72;93869.34;5085862;28;19924;-91
2023/08/22 01:40:54;;;;;;;;;;;;;;;25.17;56.95;93861.03;5053703;28;19941;-91
2023/08/22 01:43:21;;;;;;;;;;;;;;;25.17;56.63;93854.75;5062596;28;19921;-91
2023/08/22 01:45:47;;;;;;;;;;;;;;;25.18;56.67;93842.41;5101983;27;20003;-91
2023/08/22 01:48:13;;;;;;;;;;;;;;;25.17;56.63;93863.06;5105513;28;19955;-91
2023/08/22 01:50:38;;;;;;;;;;;;;;;25.17;56.66;93849.97;5079411;28;19963;-91
2023/08/22 01:53:03;;;;;;;;;;;;;;;25.17;56.81;93852.00;5095860;28;20318;-91
2023/08/22 01:55:28;;;;;;;;;;;;;;;25.16;56.77;93859.56;5090165;28;19931;-90
2023/08/22 01:57:54;;;;;;;;;;;;;;;25.16;56.86;93861.56;5085758;28;20006;-89
2023/08/22 02:00:20;;;;;;;;;;;;;;;25.17;56.59;93857.53;5060078;28;20011;-91
2023/08/22 02:02:47;;;;;;;;;;;;;;;25.15;56.71;93858.06;5085652;28;20007;-90
2023/08/22 02:05:13;;;;;;;;;;;;;;;25.15;56.62;93862.84;5086940;28;20015;-91
2023/08/22 02:07:38;;;;;;;;;;;;;;;25.14;56.74;93856.59;5075257;28;19916;-91
2023/08/22 02:10:04;;;;;;;;;;;;;;;25.14;56.67;93856.59;5075011;28;20364;-90
2023/08/22 02:12:30;;;;;;;;;;;;;;;25.14;56.71;93855.84;5089307;28;19920;-91
2023/08/22 02:14:55;;;;;;;;;;;;;;;25.14;56.62;93847.53;5078894;28;19924;-90
2023/08/22 02:17:21;;;;;;;;;;;;;;;25.13;56.63;93854.34;5069010;28;19963;-91
2023/08/22 02:19:46;;;;;;;;;;;;;;;25.14;56.40;93847.53;5076014;28;20358;-91
2023/08/22 02:22:11;;;;;;;;;;;;;;;25.13;56.78;93843.28;5073513;28;19948;-90
2023/08/22 02:24:37;;;;;;;;;;;;;;;25.13;56.68;93846.06;5058269;28;19969;-91
2023/08/22 02:27:05;;;;;;;;;;;;;;;25.12;56.57;93839.78;5091034;27;20273;-91
2023/08/22 02:29:31;;;;;;;;;;;;;;;25.13;56.72;93835.00;5062279;28;19920;-91
2023/08/22 02:31:56;;;;;;;;;;;;;;;25.12;56.51;93834.25;5054107;28;19927;-91
2023/08/22 02:34:21;;;;;;;;;;;;;;;25.12;56.82;93833.50;5054329;28;20373;-91
2023/08/22 02:36:47;;;;;;;;;;;;;;;25.12;56.58;93833.50;5070184;28;19924;-91
2023/08/22 02:39:13;;;;;;;;;;;;;;;25.11;56.50;93834.81;5067967;28;20369;-90
2023/08/22 02:41:38;;;;;;;;;;;;;;;25.11;56.61;93837.59;5068552;28;20049;-90
2023/08/22 02:44:03;;;;;;;;;;;;;;;25.11;56.75;93827.25;5067850;28;19946;-91
2023/08/22 02:46:29;;;;;;;;;;;;;;;25.11;56.54;93824.50;5086081;28;19938;-90
2023/08/22 02:48:55;;;;;;;;;;;;;;;25.11;56.58;93823.75;5089592;28;20023;-90
2023/08/22 02:51:20;;;;;;;;;;;;;;;25.10;56.64;93831.31;5104797;28;19924;-91
2023/08/22 02:53:46;;;;;;;;;;;;;;;25.09;56.64;93829.84;5069522;28;19923;-90
2023/08/22 02:56:11;;;;;;;;;;;;;;;25.09;56.77;93821.53;5081433;28;20252;-92
2023/08/22 02:58:36;;;;;;;;;;;;;;;25.10;56.37;93827.81;5093167;28;20366;-91
2023/08/22 03:01:04;;;;;;;;;;;;;;;25.11;56.55;93821.00;5067519;28;19956;-91
2023/08/22 03:03:31;;;;;;;;;;;;;;;25.10;56.50;93822.28;5075529;28;19920;-90
2023/08/22 03:05:58;;;;;;;;;;;;;;;25.09;56.77;93826.31;5052163;28;20051;-91
2023/08/22 03:08:25;;;;;;;;;;;;;;;25.08;56.51;93817.28;5106087;28;20023;-91
2023/08/22 03:10:50;;;;;;;;;;;;;;;25.08;56.60;93822.81;5048949;28;19943;-91
2023/08/22 03:13:15;;;;;;;;;;;;;;;25.10;56.43;93822.28;5068156;28;20382;-91
2023/08/22 03:15:42;;;;;;;;;;;;;;;25.08;56.56;93817.28;5084938;28;19928;-91
2023/08/22 03:18:07;;;;;;;;;;;;;;;25.08;56.74;93809.00;5085725;28;20038;-90
2023/08/22 03:20:32;;;;;;;;;;;;;;;25.08;56.66;93820.06;5056173;28;19987;-90
2023/08/22 03:22:58;;;;;;;;;;;;;;;25.08;56.64;93811.00;5083382;28;19927;-91
2023/08/22 03:25:23;;;;;;;;;;;;;;;25.08;56.41;93811.75;5082427;27;20362;-91
2023/08/22 03:27:48;;;;;;;;;;;;;;;25.07;56.40;93810.28;5071758;28;19941;-90
2023/08/22 03:30:16;;;;;;;;;;;;;;;25.08;56.58;93814.53;5072470;28;19924;-90
2023/08/22 03:32:42;;;;;;;;;;;;;;;25.08;56.41;93811.75;5092659;28;19924;-89
2023/08/22 03:35:08;;;;;;;;;;;;;;;25.06;56.45;93808.78;5069164;28;20027;-90
2023/08/22 03:37:33;;;;;;;;;;;;;;;25.06;56.60;93805.28;5106529;27;19927;-91
2023/08/22 03:39:59;;;;;;;;;;;;;;;25.04;56.85;93807.84;5071393;28;19920;-90
2023/08/22 03:42:24;;;;;;;;;;;;;;;25.01;56.38;93812.44;5100293;28;19929;-92
2023/08/22 03:44:53;;;;;;;;;;;;;;;24.89;56.46;93797.41;5090387;28;19974;-93
2023/08/22 03:47:18;;;;;;;;;;;;;;;24.78;56.54;93809.50;5095213;28;19967;-90
2023/08/22 03:49:44;;;;;;;;;;;;;;;24.69;56.73;93810.00;5084636;28;20002;-90
2023/08/22 03:52:09;;;;;;;;;;;;;;;24.60;57.26;93814.00;5079572;28;19920;-85
2023/08/22 03:54:34;;;;;;;;;;;;;;;24.57;57.00;93811.59;5078338;28;19978;-87
2023/08/22 03:56:59;;;;;;;;;;;;;;;24.48;57.32;93818.31;5067883;28;19929;-89
2023/08/22 03:59:25;;;;;;;;;;;;;;;24.42;57.50;93812.22;5082226;27;19927;-89
2023/08/22 04:01:50;;;;;;;;;;;;;;;24.38;57.45;93819.34;5058135;28;19927;-89
2023/08/22 04:04:16;;;;;;;;;;;;;;;24.33;57.49;93817.47;5070266;28;20295;-89
2023/08/22 04:06:42;;;;;;;;;;;;;;;24.25;57.49;93817.41;5070905;28;19939;-89
2023/08/22 04:09:07;;;;;;;;;;;;;;;24.16;57.63;93810.31;5051824;28;20215;-87
2023/08/22 04:11:32;;;;;;;;;;;;;;;24.13;58.02;93808.63;5069986;28;19921;-87
2023/08/22 04:13:57;;;;;;;;;;;;;;;24.10;58.18;93820.00;5085810;28;19920;-88
2023/08/22 04:16:23;;;;;;;;;;;;;;;24.05;58.38;93818.09;5089069;28;19931;-88
2023/08/22 04:18:48;;;;;;;;;;;;;;;24.02;58.45;93808.16;5092504;28;20002;-88
2023/08/22 04:21:13;;;;;;;;;;;;;;;23.97;58.55;93812.53;5080491;28;20171;-88
2023/08/22 04:23:39;;;;;;;;;;;;;;;23.92;58.71;93813.41;5052122;28;20010;-87
2023/08/22 04:26:04;;;;;;;;;;;;;;;23.88;58.64;93804.69;5085068;28;19916;-88
2023/08/22 04:28:32;;;;;;;;;;;;;;;23.85;58.93;93819.56;5069299;28;20011;-88
2023/08/22 04:30:58;;;;;;;;;;;;;;;23.85;58.72;93814.81;5069345;28;19920;-87
2023/08/22 04:33:23;;;;;;;;;;;;;;;23.86;58.97;93818.31;5076251;28;19917;-87
2023/08/22 04:35:48;;;;;;;;;;;;;;;23.81;59.25;93810.91;5069389;28;20320;-87
2023/08/22 04:38:14;;;;;;;;;;;;;;;23.80;59.08;93812.94;5065905;28;19923;-87
2023/08/22 04:40:39;;;;;;;;;;;;;;;23.72;59.36;93816.88;5085119;28;19920;-86
2023/08/22 04:43:04;;;;;;;;;;;;;;;23.69;59.39;93813.16;5080160;27;19937;-89
2023/08/22 04:45:30;;;;;;;;;;;;;;;23.71;59.19;93809.88;5078870;28;19920;-88
2023/08/22 04:47:55;;;;;;;;;;;;;;;23.68;59.39;93811.69;5097164;28;20020;-87
2023/08/22 04:50:20;;;;;;;;;;;;;;;23.67;59.89;93812.97;5087643;28;19927;-88
2023/08/22 04:52:46;;;;;;;;;;;;;;;23.64;60.08;93813.28;5102173;28;19927;-88
2023/08/22 04:55:12;;;;;;;;;;;;;;;23.63;60.13;93818.06;5089180;28;19924;-89
2023/08/22 04:57:37;;;;;;;;;;;;;;;23.66;60.19;93819.75;5072851;28;20057;-89
2023/08/22 05:00:03;;;;;;;;;;;;;;;23.65;60.43;93820.28;5092477;28;19967;-91
2023/08/22 05:02:29;;;;;;;;;;;;;;;23.64;60.66;93822.31;5085455;28;19920;-91
2023/08/22 05:04:54;;;;;;;;;;;;;;;23.66;60.91;93825.28;5073450;28;19930;-89
2023/08/22 05:07:19;;;;;;;;;;;;;;;23.65;60.93;93823.78;5089863;28;19943;-89
2023/08/22 05:09:44;;;;;;;;;;;;;;;23.61;60.90;93822.63;5105039;28;20305;-89
2023/08/22 05:12:10;;;;;;;;;;;;;;;23.63;61.18;93828.34;5089400;28;20010;-90
2023/08/22 05:14:35;;;;;;;;;;;;;;;23.63;61.77;93828.34;5073896;28;19927;-90
2023/08/22 05:17:00;;;;;;;;;;;;;;;23.64;61.81;93827.81;5076463;28;20651;-90
2023/08/22 05:19:26;;;;;;;;;;;;;;;23.67;62.39;93826.75;5077223;28;19921;-89
2023/08/22 05:21:51;;;;;;;;;;;;;;;23.67;62.16;93824.00;5053360;28;19950;-90
2023/08/22 05:24:17;;;;;;;;;;;;;;;23.69;62.40;93821.44;5073302;28;20441;-88
2023/08/22 05:26:42;;;;;;;;;;;;;;;23.72;62.94;93825.91;5056331;28;19920;-88
2023/08/22 05:29:08;;;;;;;;;;;;;;;23.78;62.88;93826.53;5072477;28;19942;-89
2023/08/22 05:31:33;;;;;;;;;;;;;;;23.81;62.53;93821.94;5079082;28;20377;-90
2023/08/22 05:33:58;;;;;;;;;;;;;;;23.82;63.37;93821.38;5073167;28;19931;-90
2023/08/22 05:36:23;;;;;;;;;;;;;;;23.84;63.34;93823.63;5091212;28;19924;-90
2023/08/22 05:38:49;;;;;;;;;;;;;;;23.87;63.47;93825.31;5087134;28;19930;-90
2023/08/22 05:41:14;;;;;;;;;;;;;;;23.89;63.57;93825.50;5061834;28;19964;-91
2023/08/22 05:43:39;;;;;;;;;;;;;;;23.91;63.21;93820.94;5077979;28;20290;-91
2023/08/22 05:46:05;;;;;;;;;;;;;;;23.95;63.43;93819.88;5062724;28;19921;-92
2023/08/22 05:48:30;;;;;;;;;;;;;;;23.97;63.57;93828.38;5090247;28;20022;-88
2023/08/22 05:50:56;;;;;;;;;;;;;;;24.02;63.51;93825.47;5075700;28;19969;-87
2023/08/22 05:53:22;;;;;;;;;;;;;;;24.01;63.65;93823.25;5081361;28;19959;-87
2023/08/22 05:55:47;;;;;;;;;;;;;;;24.02;63.10;93825.47;5087763;28;19963;-89
2023/08/22 05:58:12;;;;;;;;;;;;;;;24.05;63.77;93813.31;5089545;28;19923;-89
2023/08/22 06:00:37;;;;;;;;;;;;;;;24.10;63.23;93812.47;5070724;28;19946;-90
2023/08/22 06:03:04;;;;;;;;;;;;;;;24.16;62.90;93807.56;5090202;28;19972;-89
2023/08/22 06:05:29;;;;;;;;;;;;;;;24.21;62.78;93808.69;5072489;28;19924;-90
2023/08/22 06:07:54;;;;;;;;;;;;;;;24.29;62.60;93806.00;5089839;28;19920;-89
2023/08/22 06:10:20;;;;;;;;;;;;;;;24.36;62.15;93810.88;5088464;28;19920;-90
2023/08/22 06:12:46;;;;;;;;;;;;;;;24.40;62.00;93808.50;5071374;28;19920;-89
2023/08/22 06:15:12;;;;;;;;;;;;;;;24.44;61.67;93811.69;5084889;28;19969;-88
2023/08/22 06:17:37;;;;;;;;;;;;;;;24.46;61.44;93807.09;5090433;28;19973;-87
2023/08/22 06:20:05;;;;;;;;;;;;;;;24.51;61.31;93814.47;5089440;28;19924;-88
2023/08/22 06:22:30;;;;;;;;;;;;;;;24.53;61.50;93816.72;5072205;28;19955;-89
2023/08/22 06:24:55;;;;;;;;;;;;;;;24.57;61.08;93809.56;5066153;28;19964;-91
2023/08/22 06:27:20;;;;;;;;;;;;;;;24.58;60.95;93813.06;5088923;28;20041;-91
2023/08/22 06:29:46;;;;;;;;;;;;;;;24.64;60.97;93812.94;5083445;28;19966;-91
2023/08/22 06:32:11;;;;;;;;;;;;;;;24.67;60.74;93817.38;5100607;27;19924;-93
2023/08/22 06:34:36;;;;;;;;;;;;;;;24.71;60.79;93814.97;5091519;28;19926;-93
2023/08/22 06:37:05;;;;;;;;;;;;;;;24.72;60.76;93808.91;5069463;28;20046;-93
2023/08/22 06:39:30;;;;;;;;;;;;;;;24.76;60.70;93806.53;5089046;28;20003;-91
2023/08/22 06:41:55;;;;;;;;;;;;;;;24.79;60.55;93808.22;5079369;28;19963;-91
2023/08/22 06:44:21;;;;;;;;;;;;;;;24.81;60.41;93813.22;5099033;28;19922;-92
2023/08/22 06:46:46;;;;;;;;;;;;;;;24.84;60.51;93817.66;5088234;28;19924;-91
2023/08/22 06:49:11;;;;;;;;;;;;;;;24.86;60.44;93817.88;5051031;28;19932;-92
2023/08/22 06:51:36;;;;;;;;;;;;;;;24.87;60.44;93819.34;5087222;28;19978;-92
2023/08/22 06:54:02;;;;;;;;;;;;;;;24.90;60.21;93810.69;5067146;28;19974;-91
2023/08/22 06:56:27;;;;;;;;;;;;;;;24.93;60.25;93815.13;5085714;28;20404;-90
2023/08/22 06:58:53;;;;;;;;;;;;;;;24.96;60.18;93818.13;5071040;28;19924;-90
2023/08/22 07:01:18;;;;;;;;;;;;;;;24.98;60.07;93812.78;5059302;28;20305;-91
2023/08/22 07:03:43;;;;;;;;;;;;;;;24.99;60.13;93815.00;5070477;28;20014;-92
2023/08/22 07:06:10;;;;;;;;;;;;;;;25.01;60.02;93812.44;5085642;28;19924;-91
2023/08/22 07:08:35;;;;;;;;;;;;;;;25.04;59.96;93816.16;5090370;28;19942;-90
2023/08/22 07:11:02;;;;;;;;;;;;;;;25.02;60.06;93816.69;5071699;28;20361;-91
2023/08/22 07:13:27;;;;;;;;;;;;;;;25.03;59.91;93818.19;5105405;28;19920;-91
2023/08/22 07:15:54;;;;;;;;;;;;;;;25.04;60.24;93818.91;5080280;28;19928;-90
2023/08/22 07:18:19;;;;;;;;;;;;;;;25.05;60.17;93815.59;5077082;28;19924;-89
2023/08/22 07:20:46;;;;;;;;;;;;;;;25.07;60.02;93824.09;5073904;28;19920;-91
2023/08/22 07:23:11;;;;;;;;;;;;;;;25.09;60.03;93821.53;5069280;28;19978;-91
2023/08/22 07:25:37;;;;;;;;;;;;;;;25.10;60.12;93816.75;5083030;28;19929;-91
2023/08/22 07:28:03;;;;;;;;;;;;;;;25.10;60.14;93820.25;5101274;28;20275;-93
2023/08/22 07:30:28;;;;;;;;;;;;;;;25.14;60.04;93828.19;5082703;28;19920;-89
2023/08/22 07:32:54;;;;;;;;;;;;;;;25.14;59.86;93819.88;5094813;28;19920;-89
2023/08/22 07:35:19;;;;;;;;;;;;;;;25.18;59.80;93825.81;5077654;28;20004;-89
2023/08/22 07:37:44;;;;;;;;;;;;;;;25.16;59.71;93822.84;5094398;28;19973;-89
2023/08/22 07:40:10;;;;;;;;;;;;;;;25.16;59.91;93818.03;5078645;28;19920;-88
2023/08/22 07:42:36;;;;;;;;;;;;;;;25.18;59.89;93826.53;5097313;28;19920;-88
2023/08/22 07:45:02;;;;;;;;;;;;;;;25.20;59.74;93823.97;5080474;28;19920;-90
2023/08/22 07:47:29;;;;;;;;;;;;;;;25.20;59.84;93823.97;5075486;28;19947;-90
2023/08/22 07:49:56;;;;;;;;;;;;;;;25.24;59.48;93820.84;5097671;28;20397;-91
2023/08/22 07:52:21;;;;;;;;;;;;;;;25.24;59.54;93813.31;5078164;28;19924;-90
2023/08/22 07:54:46;;;;;;;;;;;;;;;25.25;59.61;93823.09;5094288;28;20391;-90
2023/08/22 07:57:11;;;;;;;;;;;;;;;25.27;59.47;93820.50;5093368;28;19978;-88
2023/08/22 07:59:38;;;;;;;;;;;;;;;25.28;59.44;93821.25;5094578;28;20023;-90
2023/08/22 08:02:04;;;;;;;;;;;;;;;25.28;59.51;93822.00;5094130;28;19939;-89
2023/08/22 08:04:30;;;;;;;;;;;;;;;25.30;59.51;93824.22;5110195;28;19926;-89
2023/08/22 08:06:55;;;;;;;;;;;;;;;25.31;59.33;93822.94;5090905;28;19916;-89
2023/08/22 08:09:21;;;;;;;;;;;;;;;25.33;59.39;93827.94;5073887;28;19923;-92
2023/08/22 08:11:46;;;;;;;;;;;;;;;25.33;59.48;93825.91;5092880;28;19980;-91
2023/08/22 08:14:11;;;;;;;;;;;;;;;25.36;59.25;93827.53;5092451;28;19923;-91
2023/08/22 08:16:36;;;;;;;;;;;;;;;25.37;58.96;93834.56;5092173;28;20014;-90
2023/08/22 08:19:02;;;;;;;;;;;;;;;25.40;58.72;93827.19;5090951;28;19924;-91
2023/08/22 08:21:27;;;;;;;;;;;;;;;25.43;58.64;93829.63;5090605;28;19924;-89
2023/08/22 08:23:53;;;;;;;;;;;;;;;25.44;58.69;93825.56;5091731;28;19973;-91
2023/08/22 08:26:18;;;;;;;;;;;;;;;25.46;58.30;93830.56;5091168;28;19953;-90
2023/08/22 08:28:44;;;;;;;;;;;;;;;25.46;58.65;93828.53;5091647;28;19920;-90
2023/08/22 08:31:09;;;;;;;;;;;;;;;25.46;58.58;93828.53;5074516;28;20011;-89
2023/08/22 08:33:34;;;;;;;;;;;;;;;25.49;58.32;93827.44;5090972;28;19983;-91
2023/08/22 08:36:00;;;;;;;;;;;;;;;25.51;58.15;93827.63;5091339;28;19924;-89
2023/08/22 08:38:26;;;;;;;;;;;;;;;25.49;58.54;93829.47;5092230;28;19968;-89
2023/08/22 08:40:51;;;;;;;;;;;;;;;25.51;58.08;93822.09;5089963;28;19920;-90
2023/08/22 08:43:17;;;;;;;;;;;;;;;25.53;58.00;93819.53;5089776;28;20293;-89
2023/08/22 08:45:42;;;;;;;;;;;;;;;25.55;57.92;93828.00;5091308;28;19924;-89
2023/08/22 08:48:08;;;;;;;;;;;;;;;25.57;57.85;93824.69;5074125;28;19920;-93
2023/08/22 08:50:33;;;;;;;;;;;;;;;25.57;57.65;93816.38;5092896;28;20393;-89
2023/08/22 08:52:58;;;;;;;;;;;;;;;25.59;57.45;93817.31;5092176;28;19959;-90
2023/08/22 08:55:24;;;;;;;;;;;;;;;25.62;57.34;93821.00;5073998;28;20374;-88
2023/08/22 08:57:51;;;;;;;;;;;;;;;25.64;57.58;93817.72;5089496;28;19927;-90
2023/08/22 09:00:17;;;;;;;;;;;;;;;25.63;57.06;93814.22;5074909;28;19920;-90
2023/08/22 09:02:43;;;;;;;;;;;;;;;25.63;57.12;93819.75;5090319;28;20385;-90
2023/08/22 09:05:09;;;;;;;;;;;;;;;25.63;57.29;93819.75;5072664;28;19919;-90
2023/08/22 09:07:35;;;;;;;;;;;;;;;25.65;57.12;93822.72;5072935;28;19935;-88
2023/08/22 09:10:01;;;;;;;;;;;;;;;25.65;57.06;93819.94;5091567;28;19926;-88
2023/08/22 09:12:31;;;;;;;;;;;;;;;25.67;57.05;93825.69;5091403;28;19924;-90
2023/08/22 09:14:56;;;;;;;;;;;;;;;25.66;57.28;93818.66;5075727;28;19920;-89
2023/08/22 09:17:21;;;;;;;;;;;;;;;25.67;57.13;93816.63;5093495;28;19927;-91
2023/08/22 09:19:47;;;;;;;;;;;;;;;25.67;57.16;93814.59;5092934;28;20146;-88
2023/08/22 09:22:13;;;;;;;;;;;;;;;25.66;57.29;93817.91;5090755;28;19928;-88
2023/08/22 09:24:40;;;;;;;;;;;;;;;25.68;57.54;93815.34;5096349;28;19987;-89
2023/08/22 09:27:05;;;;;;;;;;;;;;;25.69;57.61;93817.56;5080271;28;19920;-89
2023/08/22 09:29:32;;;;;;;;;;;;;;;25.68;57.48;93818.09;5094990;28;19966;-89
2023/08/22 09:32:03;;;;;;;;;;;;;;;25.66;57.43;93815.88;5079699;28;19920;-89
2023/08/22 09:34:28;;;;;;;;;;;;;;;25.67;57.65;93822.16;5087903;28;19955;-90
2023/08/22 09:36:54;;;;;;;;;;;;;;;25.67;57.43;93813.84;5087298;28;19924;-89
2023/08/22 09:39:19;;;;;;;;;;;;;;;25.69;57.18;93830.66;5071658;28;19912;-90
2023/08/22 09:41:45;;;;;;;;;;;;;;;25.68;57.43;93820.88;5089209;28;19919;-89
2023/08/22 09:44:10;;;;;;;;;;;;;;;25.70;57.05;93821.06;5084614;28;20019;-91
2023/08/22 09:46:36;;;;;;;;;;;;;;;25.71;56.78;93817.75;5063533;28;19924;-91
2023/08/22 09:49:02;;;;;;;;;;;;;;;25.72;57.01;93813.69;5081245;28;19989;-89
2023/08/22 09:51:27;;;;;;;;;;;;;;;25.72;56.92;93822.00;5080044;28;20016;-90
2023/08/22 09:53:55;;;;;;;;;;;;;;;25.73;56.71;93817.19;5066053;28;20392;-89
2023/08/22 09:56:21;;;;;;;;;;;;;;;25.74;56.63;93815.91;5078015;28;20297;-89
2023/08/22 09:58:48;;;;;;;;;;;;;;;25.71;57.15;93817.00;5076243;28;19920;-91
2023/08/22 10:01:16;;;;;;;;;;;;;;;25.71;56.91;93817.75;5067796;28;19928;-90
2023/08/22 10:03:43;;;;;;;;;;;;;;;25.71;56.93;93817.75;5070747;28;19924;-90
2023/08/22 10:06:10;;;;;;;;;;;;;;;25.70;56.73;93805.19;5055584;28;20373;-91
2023/08/22 10:08:35;;;;;;;;;;;;;;;25.71;57.05;93805.94;5061269;28;19932;-91
2023/08/22 10:11:01;;;;;;;;;;;;;;;25.72;57.08;93802.63;5081691;28;19920;-91
2023/08/22 10:13:26;;;;;;;;;;;;;;;25.71;56.72;93800.41;5064986;28;19924;-91
2023/08/22 10:15:51;;;;;;;;;;;;;;;25.69;57.05;93797.44;5102488;28;19927;-91
2023/08/22 10:18:16;;;;;;;;;;;;;;;25.70;56.88;93807.97;5086448;28;20325;-90
2023/08/22 10:20:42;;;;;;;;;;;;;;;25.69;57.00;93794.66;5077028;28;20299;-91
2023/08/22 10:23:08;;;;;;;;;;;;;;;25.68;57.04;93796.69;5103863;27;20019;-90
2023/08/22 10:25:48;;;;;;;;;;;;;;;25.69;57.15;93808.50;5067963;28;19951;-90
2023/08/22 10:28:13;;;;;;;;;;;;;;;25.69;56.98;93795.41;5074075;28;19969;-90
2023/08/22 10:30:57;;;;;;;;;;;;;;;25.69;56.97;93797.44;5086692;28;19916;-91
2023/08/22 10:33:26;;;;;;;;;;;;;;;25.69;57.16;93802.97;5087193;28;19927;-91
2023/08/22 10:36:04;;;;;;;;;;;;;;;25.71;56.99;93797.63;5099648;28;20036;-90
2023/08/22 10:38:29;;;;;;;;;;;;;;;25.71;57.03;93803.91;5083886;28;19920;-90
2023/08/22 10:40:55;;;;;;;;;;;;;;;25.73;57.09;93800.59;5086416;28;20360;-90
2023/08/22 10:43:21;;;;;;;;;;;;;;;25.72;56.77;93794.31;5053561;28;19924;-89
2023/08/22 10:45:49;;;;;;;;;;;;;;;25.71;57.05;93792.09;5072608;28;20365;-90
2023/08/22 10:48:15;;;;;;;;;;;;;;;25.71;56.80;93795.59;5073196;28;20018;-91
2023/08/22 10:50:42;;;;;;;;;;;;;;;25.70;56.91;93785.81;5067971;28;19955;-92
2023/08/22 10:53:10;;;;;;;;;;;;;;;25.71;56.81;93789.31;5090438;28;20435;-91
2023/08/22 10:55:36;;;;;;;;;;;;;;;25.69;56.84;93781.56;5071804;28;19970;-89
2023/08/22 10:58:02;;;;;;;;;;;;;;;25.71;56.90;93790.06;5081837;28;19920;-92
2023/08/22 11:00:27;;;;;;;;;;;;;;;25.70;56.88;93793.38;5066092;28;19920;-93
2023/08/22 11:02:56;;;;;;;;;;;;;;;25.71;57.18;93790.06;5092904;28;19992;-93
2023/08/22 11:05:21;;;;;;;;;;;;;;;25.72;57.06;93783.22;5066950;28;20369;-94
2023/08/22 11:07:48;;;;;;;;;;;;;;;25.71;57.03;93783.78;5078032;28;19930;-90
2023/08/22 11:10:14;;;;;;;;;;;;;;;25.71;57.01;93776.22;5067885;28;19927;-93
2023/08/22 11:12:40;;;;;;;;;;;;;;;25.72;56.89;93766.63;5066977;28;19920;-93
2023/08/22 11:15:05;;;;;;;;;;;;;;;25.73;57.12;93778.44;5110547;28;19939;-93
2023/08/22 11:17:32;;;;;;;;;;;;;;;25.74;57.17;93783.44;5099620;28;20476;-92
2023/08/22 11:19:57;;;;;;;;;;;;;;;25.74;57.30;93782.69;5037864;28;19938;-93
2023/08/22 11:22:23;;;;;;;;;;;;;;;25.76;57.04;93785.66;5099015;28;19920;-93
2023/08/22 11:24:49;;;;;;;;;;;;;;;25.76;56.96;93785.66;5110314;28;19920;-92
2023/08/22 11:27:14;;;;;;;;;;;;;;;25.75;57.29;93784.16;5094069;28;19931;-92
2023/08/22 11:29:42;;;;;;;;;;;;;;;25.76;56.94;93788.41;5079704;28;19920;-93
2023/08/22 11:32:20;;;;;;;;;;;;;;;25.76;56.84;93788.41;5070932;28;19950;-91
2023/08/22 11:34:46;;;;;;;;;;;;;;;25.75;57.17;93786.94;5070559;28;19948;-91
2023/08/22 11:37:11;;;;;;;;;;;;;;;25.76;57.04;93785.66;5070733;28;20486;-92
2023/08/22 11:39:37;;;;;;;;;;;;;;;25.77;57.10;93781.56;5048891;28;19928;-90
2023/08/22 11:42:03;;;;;;;;;;;;;;;25.76;57.31;93789.16;5057596;28;20393;-93
2023/08/22 11:44:28;;;;;;;;;;;;;;;25.77;57.35;93787.09;5058160;28;19924;-90
2023/08/22 11:46:54;;;;;;;;;;;;;;;25.78;57.06;93785.81;5058100;28;20396;-92
2023/08/22 11:49:20;;;;;;;;;;;;;;;25.81;57.15;93790.25;5092804;28;19924;-93
2023/08/22 11:51:45;;;;;;;;;;;;;;;25.79;57.00;93782.50;5076347;28;19920;-91
2023/08/22 11:54:21;;;;;;;;;;;;;;;25.79;57.34;93776.22;5065672;28;19974;-91
2023/08/22 11:56:49;;;;;;;;;;;;;;;25.79;57.23;93776.22;5069341;28;19955;-92
2023/08/22 11:59:14;;;;;;;;;;;;;;;25.81;57.31;93781.94;5101455;28;19947;-92
2023/08/22 12:01:39;;;;;;;;;;;;;;;25.80;57.33;93769.38;5076029;28;20369;-91
2023/08/22 12:04:05;;;;;;;;;;;;;;;25.79;57.40;93779.72;5123914;27;19920;-93
2023/08/22 12:06:31;;;;;;;;;;;;;;;25.79;57.46;93781.75;5091072;28;19931;-91
2023/08/22 12:08:56;;;;;;;;;;;;;;;25.79;57.45;93773.44;5073636;28;20366;-92
2023/08/22 12:11:22;;;;;;;;;;;;;;;25.79;57.42;93782.50;5095098;28;19958;-91
2023/08/22 12:13:47;;;;;;;;;;;;;;;25.79;57.48;93778.97;5106896;28;19919;-91
2023/08/22 12:16:12;;;;;;;;;;;;;;;25.78;57.45;93778.25;5081903;28;19935;-92
2023/08/22 12:18:39;;;;;;;;;;;;;;;25.78;57.54;93783.78;5077537;28;19927;-93
2023/08/22 12:21:05;;;;;;;;;;;;;;;25.81;57.32;93781.94;5081279;28;19924;-95
2023/08/22 12:23:30;;;;;;;;;;;;;;;25.82;57.61;93781.41;5079193;28;20397;-94
2023/08/22 12:25:55;;;;;;;;;;;;;;;25.84;57.31;93780.84;5076658;28;19966;-94
2023/08/22 12:28:21;;;;;;;;;;;;;;;25.84;57.20;93776.03;5078537;28;19924;-93
2023/08/22 12:30:47;;;;;;;;;;;;;;;25.86;57.20;93778.25;5090735;28;19930;-93
2023/08/22 12:33:12;;;;;;;;;;;;;;;25.87;58.28;93768.66;5085664;28;19916;-94
2023/08/22 12:35:38;;;;;;;;;;;;;;;25.88;58.13;93778.44;5086760;28;19923;-91
2023/08/22 12:38:03;;;;;;;;;;;;;;;25.90;58.50;93773.84;5081708;28;19928;-93
2023/08/22 12:40:29;;;;;;;;;;;;;;;25.91;58.24;93769.03;5073410;28;19931;-92